Time;durP1;ratioP1;P1;durP2;ratioP2;P2;SDS_P1;SDS_P2;PMS_P1;PMS_P2;Temp;Humidity;BMP_temperature;BMP_pressure;BME280_temperature;BME280_humidity;BME280_pressure;Samples;Min_cycle;Max_cycle;Signal;HPM_P1;HPM_P2
2023/06/15 00:00:24;;;;;;;5.22;3.47;;;;;;;;;;5038010;28;20048;-86
2023/06/15 00:02:50;;;;;;;6.03;3.55;;;;;;;;;;5042374;28;20034;-86
2023/06/15 00:05:16;;;;;;;6.43;3.90;;;;;;;;;;5044453;28;20144;-86
2023/06/15 00:07:42;;;;;;;5.28;3.72;;;;;;;;;;5046063;28;20067;-86
2023/06/15 00:10:09;;;;;;;5.05;3.42;;;;;;;;;;5033028;28;20068;-86
2023/06/15 00:12:34;;;;;;;6.88;3.80;;;;;;;;;;5054064;28;20044;-86
2023/06/15 00:15:00;;;;;;;4.82;3.60;;;;;;;;;;5035038;28;20041;-86
2023/06/15 00:17:26;;;;;;;6.85;4.15;;;;;;;;;;5024245;28;20079;-86
2023/06/15 00:19:53;;;;;;;4.28;3.80;;;;;;;;;;5042812;28;20025;-86
2023/06/15 00:22:19;;;;;;;5.30;3.60;;;;;;;;;;5027304;28;20688;-86
2023/06/15 00:24:45;;;;;;;4.60;3.47;;;;;;;;;;5048272;28;20071;-86
2023/06/15 00:27:10;;;;;;;5.88;3.63;;;;;;;;;;5025002;28;20040;-86
2023/06/15 00:29:37;;;;;;;4.75;3.72;;;;;;;;;;5021530;28;20056;-86
2023/06/15 00:32:06;;;;;;;5.38;4.00;;;;;;;;;;5049540;28;20045;-86
2023/06/15 00:34:32;;;;;;;6.47;4.00;;;;;;;;;;5044982;28;20407;-85
2023/06/15 00:36:57;;;;;;;4.88;3.63;;;;;;;;;;5047592;28;20053;-86
2023/06/15 00:39:23;;;;;;;6.28;3.83;;;;;;;;;;5033095;28;20045;-86
2023/06/15 00:41:48;;;;;;;5.60;3.63;;;;;;;;;;5019362;28;20064;-86
2023/06/15 00:44:14;;;;;;;5.30;4.30;;;;;;;;;;5040171;28;20494;-86
2023/06/15 00:46:40;;;;;;;5.60;4.03;;;;;;;;;;5024775;28;20047;-86
2023/06/15 00:49:07;;;;;;;5.07;4.10;;;;;;;;;;5023622;28;20585;-86
2023/06/15 00:51:34;;;;;;;8.13;4.63;;;;;;;;;;5026405;28;20021;-86
2023/06/15 00:54:02;;;;;;;8.85;4.05;;;;;;;;;;5029821;28;20041;-86
2023/06/15 00:56:29;;;;;;;7.97;3.90;;;;;;;;;;5049260;28;20028;-86
2023/06/15 00:58:56;;;;;;;7.30;4.15;;;;;;;;;;5034919;28;20216;-86
2023/06/15 01:01:22;;;;;;;5.03;3.72;;;;;;;;;;5056263;28;20031;-86
2023/06/15 01:03:48;;;;;;;7.90;4.00;;;;;;;;;;5055667;28;20041;-86
2023/06/15 01:06:15;;;;;;;5.07;3.90;;;;;;;;;;5024956;28;20124;-86
2023/06/15 01:08:43;;;;;;;5.75;3.72;;;;;;;;;;5044998;28;20044;-85
2023/06/15 01:11:13;;;;;;;7.63;4.13;;;;;;;;;;5029872;28;20029;-86
2023/06/15 01:13:39;;;;;;;5.53;4.07;;;;;;;;;;5033420;28;20044;-86
2023/06/15 01:16:13;;;;;;;5.22;3.90;;;;;;;;;;5054216;28;20040;-86
2023/06/15 01:18:46;;;;;;;6.53;3.78;;;;;;;;;;5042122;28;20029;-86
2023/06/15 01:21:13;;;;;;;6.70;3.67;;;;;;;;;;5040236;28;20033;-86
2023/06/15 01:23:49;;;;;;;6.75;3.97;;;;;;;;;;5042587;28;20065;-87
2023/06/15 01:26:17;;;;;;;4.90;3.70;;;;;;;;;;5009607;28;20061;-85
2023/06/15 01:28:49;;;;;;;6.30;3.60;;;;;;;;;;5027893;28;20038;-84
2023/06/15 01:31:15;;;;;;;5.43;3.78;;;;;;;;;;5048014;28;20111;-84
2023/06/15 01:33:49;;;;;;;6.78;3.83;;;;;;;;;;5033838;28;20082;-85
2023/06/15 01:36:16;;;;;;;8.43;4.47;;;;;;;;;;5036102;28;20454;-83
2023/06/15 01:38:45;;;;;;;7.05;4.30;;;;;;;;;;5031818;28;20029;-83
2023/06/15 01:41:12;;;;;;;7.78;3.88;;;;;;;;;;5022530;28;20028;-82
2023/06/15 01:43:39;;;;;;;9.07;4.15;;;;;;;;;;5024661;28;20521;-82
2023/06/15 01:46:05;;;;;;;7.45;4.00;;;;;;;;;;5028564;28;20029;-83
2023/06/15 01:48:31;;;;;;;4.38;3.67;;;;;;;;;;5014519;28;20036;-83
2023/06/15 01:50:58;;;;;;;7.10;4.18;;;;;;;;;;5020396;28;20045;-83
2023/06/15 01:53:24;;;;;;;6.35;4.20;;;;;;;;;;5018459;28;20068;-83
2023/06/15 01:55:50;;;;;;;8.13;3.70;;;;;;;;;;5003582;28;20029;-84
2023/06/15 01:58:16;;;;;;;5.30;3.88;;;;;;;;;;5034911;28;20485;-83
2023/06/15 02:00:46;;;;;;;5.88;3.90;;;;;;;;;;5025754;28;20068;-83
2023/06/15 02:03:12;;;;;;;6.03;3.50;;;;;;;;;;5047266;28;20390;-82
2023/06/15 02:05:41;;;;;;;6.20;3.70;;;;;;;;;;5031934;28;20104;-82
2023/06/15 02:08:07;;;;;;;4.53;3.70;;;;;;;;;;5035404;28;20124;-83
2023/06/15 02:10:33;;;;;;;6.30;3.90;;;;;;;;;;5025780;28;20059;-83
2023/06/15 02:12:59;;;;;;;6.28;4.00;;;;;;;;;;5021287;28;20555;-83
2023/06/15 02:15:24;;;;;;;6.00;3.97;;;;;;;;;;5023216;28;20056;-83
2023/06/15 02:17:59;;;;;;;5.45;3.70;;;;;;;;;;5027547;28;20056;-83
2023/06/15 02:20:25;;;;;;;5.10;3.72;;;;;;;;;;5047030;28;20502;-84
2023/06/15 02:22:52;;;;;;;8.07;4.40;;;;;;;;;;5016330;28;20090;-83
2023/06/15 02:25:21;;;;;;;6.22;3.88;;;;;;;;;;5052996;28;20404;-83
2023/06/15 02:27:46;;;;;;;6.72;4.07;;;;;;;;;;5037878;28;20570;-83
2023/06/15 02:30:12;;;;;;;6.43;3.60;;;;;;;;;;5039892;28;20109;-82
2023/06/15 02:32:39;;;;;;;6.07;4.30;;;;;;;;;;5024558;28;20034;-82
2023/06/15 02:35:11;;;;;;;7.65;3.85;;;;;;;;;;5027786;28;20411;-83
2023/06/15 02:37:38;;;;;;;7.32;4.20;;;;;;;;;;5031476;28;20034;-83
2023/06/15 02:40:05;;;;;;;6.32;3.85;;;;;;;;;;5032723;28;20028;-83
2023/06/15 02:42:31;;;;;;;9.85;4.00;;;;;;;;;;5031540;28;20124;-84
2023/06/15 02:44:57;;;;;;;5.22;3.92;;;;;;;;;;5018882;28;20076;-83
2023/06/15 02:47:23;;;;;;;7.57;3.90;;;;;;;;;;5022651;28;20079;-83
2023/06/15 02:49:49;;;;;;;5.35;3.85;;;;;;;;;;5025801;28;20033;-83
2023/06/15 02:52:16;;;;;;;5.07;3.70;;;;;;;;;;5028395;28;20025;-83
2023/06/15 02:54:42;;;;;;;5.43;4.30;;;;;;;;;;5013995;28;20521;-83
2023/06/15 02:57:08;;;;;;;6.68;4.07;;;;;;;;;;5034700;28;20033;-83
2023/06/15 02:59:42;;;;;;;5.22;4.10;;;;;;;;;;5021783;28;20068;-83
2023/06/15 03:02:10;;;;;;;5.18;4.13;;;;;;;;;;5004588;28;20044;-83
2023/06/15 03:04:44;;;;;;;7.57;4.05;;;;;;;;;;5023043;28;20398;-83
2023/06/15 03:07:16;;;;;;;5.15;3.75;;;;;;;;;;5042545;28;20037;-83
2023/06/15 03:10:00;;;;;;;5.55;3.72;;;;;;;;;;5040624;28;20074;-83
2023/06/15 03:12:26;;;;;;;5.32;4.00;;;;;;;;;;5020458;28;20037;-84
2023/06/15 03:14:52;;;;;;;7.40;4.10;;;;;;;;;;5016472;28;20400;-83
2023/06/15 03:17:18;;;;;;;6.03;4.22;;;;;;;;;;5002613;28;20120;-83
2023/06/15 03:19:47;;;;;;;7.65;4.50;;;;;;;;;;5039358;28;20039;-83
2023/06/15 03:22:14;;;;;;;8.88;3.90;;;;;;;;;;5042880;28;20080;-82
2023/06/15 03:24:41;;;;;;;10.23;4.25;;;;;;;;;;5026703;28;20063;-81
2023/06/15 03:27:10;;;;;;;6.80;3.92;;;;;;;;;;5029521;28;20505;-83
2023/06/15 03:29:38;;;;;;;7.15;4.18;;;;;;;;;;5032024;28;20064;-84
2023/06/15 03:32:08;;;;;;;5.63;4.03;;;;;;;;;;5027657;28;20120;-84
2023/06/15 03:34:38;;;;;;;6.15;4.00;;;;;;;;;;5018602;28;20087;-82
2023/06/15 03:37:05;;;;;;;8.05;4.20;;;;;;;;;;5020870;28;20033;-83
2023/06/15 03:39:33;;;;;;;7.45;4.10;;;;;;;;;;5024617;28;20509;-83
2023/06/15 03:41:59;;;;;;;5.28;4.30;;;;;;;;;;5022888;28;20041;-83
2023/06/15 03:44:25;;;;;;;8.05;3.60;;;;;;;;;;5019762;28;20068;-82
2023/06/15 03:46:51;;;;;;;8.48;4.70;;;;;;;;;;5034490;28;20099;-82
2023/06/15 03:49:16;;;;;;;8.73;4.05;;;;;;;;;;5033777;28;20491;-83
2023/06/15 03:51:42;;;;;;;6.35;4.60;;;;;;;;;;5019719;28;20049;-83
2023/06/15 03:54:09;;;;;;;7.72;5.00;;;;;;;;;;5022327;28;20132;-81
2023/06/15 03:56:34;;;;;;;5.88;4.00;;;;;;;;;;5041643;28;20565;-83
2023/06/15 03:59:00;;;;;;;5.78;4.25;;;;;;;;;;5027450;28;20442;-82
2023/06/15 04:01:25;;;;;;;6.07;4.80;;;;;;;;;;5014564;28;20135;-84
2023/06/15 04:03:52;;;;;;;7.10;4.10;;;;;;;;;;5049243;28;20055;-83
2023/06/15 04:06:21;;;;;;;6.35;4.15;;;;;;;;;;5019063;28;20483;-84
2023/06/15 04:08:47;;;;;;;4.47;3.92;;;;;;;;;;5033696;28;20120;-83
2023/06/15 04:11:13;;;;;;;5.38;4.10;;;;;;;;;;5026484;28;20037;-83
2023/06/15 04:13:40;;;;;;;6.82;4.00;;;;;;;;;;5047611;28;20029;-82
2023/06/15 04:16:06;;;;;;;4.80;3.88;;;;;;;;;;5050495;28;20069;-82
2023/06/15 04:18:32;;;;;;;7.57;5.25;;;;;;;;;;5035588;28;20491;-82
2023/06/15 04:20:58;;;;;;;7.30;4.53;;;;;;;;;;5048077;28;20037;-82
2023/06/15 04:23:23;;;;;;;5.22;3.97;;;;;;;;;;5039461;28;20100;-83
2023/06/15 04:25:49;;;;;;;7.25;4.32;;;;;;;;;;5039956;28;20087;-83
2023/06/15 04:28:16;;;;;;;5.82;3.83;;;;;;;;;;5027301;28;20071;-83
2023/06/15 04:30:46;;;;;;;5.80;3.95;;;;;;;;;;5030459;28;20040;-83
2023/06/15 04:33:15;;;;;;;5.90;4.18;;;;;;;;;;5030737;28;20129;-83
2023/06/15 04:35:46;;;;;;;6.38;4.22;;;;;;;;;;5035189;28;20061;-82
2023/06/15 04:38:13;;;;;;;5.03;3.78;;;;;;;;;;5027663;28;20064;-82
2023/06/15 04:40:42;;;;;;;7.43;4.18;;;;;;;;;;5022302;28;20034;-82
2023/06/15 04:43:08;;;;;;;7.50;4.90;;;;;;;;;;5024583;28;20037;-82
2023/06/15 04:45:35;;;;;;;7.32;4.40;;;;;;;;;;5043889;28;20136;-82
2023/06/15 04:48:01;;;;;;;6.00;4.15;;;;;;;;;;5031012;28;20043;-83
2023/06/15 04:50:29;;;;;;;5.82;4.32;;;;;;;;;;5032722;28;20033;-83
2023/06/15 04:52:56;;;;;;;6.30;4.20;;;;;;;;;;5018723;28;20033;-83
2023/06/15 04:55:22;;;;;;;5.80;4.47;;;;;;;;;;5018449;28;20033;-83
2023/06/15 04:57:48;;;;;;;8.52;4.30;;;;;;;;;;5022135;28;20163;-83
2023/06/15 05:00:15;;;;;;;5.45;4.25;;;;;;;;;;5025124;28;20381;-81
2023/06/15 05:02:46;;;;;;;14.25;4.75;;;;;;;;;;5028822;28;20171;-83
2023/06/15 05:05:13;;;;;;;6.43;4.15;;;;;;;;;;5022581;28;20057;-83
2023/06/15 05:07:39;;;;;;;6.53;3.92;;;;;;;;;;5020237;28;20059;-82
2023/06/15 05:10:07;;;;;;;5.75;4.18;;;;;;;;;;5035526;28;20033;-83
2023/06/15 05:12:33;;;;;;;6.53;4.32;;;;;;;;;;5014744;28;20020;-82
2023/06/15 05:14:58;;;;;;;6.13;3.85;;;;;;;;;;5048686;28;20148;-83
2023/06/15 05:17:25;;;;;;;5.60;3.80;;;;;;;;;;5026847;28;20060;-83
2023/06/15 05:19:50;;;;;;;6.30;4.53;;;;;;;;;;5024427;28;20043;-81
2023/06/15 05:22:16;;;;;;;7.35;4.53;;;;;;;;;;5021867;28;20128;-83
2023/06/15 05:24:42;;;;;;;5.75;4.15;;;;;;;;;;5019620;28;20125;-82
2023/06/15 05:27:08;;;;;;;8.63;4.22;;;;;;;;;;5018719;28;20083;-83
2023/06/15 05:29:36;;;;;;;8.00;4.25;;;;;;;;;;5020531;28;20704;-84
2023/06/15 05:32:03;;;;;;;6.35;4.30;;;;;;;;;;5023653;28;20037;-83
2023/06/15 05:34:30;;;;;;;6.88;4.25;;;;;;;;;;5025804;28;20025;-85
2023/06/15 05:36:56;;;;;;;8.70;4.10;;;;;;;;;;5046007;28;20137;-82
2023/06/15 05:39:25;;;;;;;5.95;3.90;;;;;;;;;;5031744;28;20051;-83
2023/06/15 05:41:51;;;;;;;8.45;4.38;;;;;;;;;;5034332;28;20037;-83
2023/06/15 05:44:16;;;;;;;6.97;4.18;;;;;;;;;;5021577;28;20044;-82
2023/06/15 05:46:43;;;;;;;7.75;4.00;;;;;;;;;;5030716;28;20125;-83
2023/06/15 05:49:08;;;;;;;8.45;4.10;;;;;;;;;;5028092;28;20143;-83
2023/06/15 05:51:35;;;;;;;7.13;3.88;;;;;;;;;;5009306;28;20057;-84
2023/06/15 05:54:01;;;;;;;7.68;3.63;;;;;;;;;;5021569;28;20499;-83
2023/06/15 05:56:26;;;;;;;11.40;3.90;;;;;;;;;;5024178;28;20053;-84
2023/06/15 05:58:53;;;;;;;6.95;3.70;;;;;;;;;;5032925;28;20029;-84
2023/06/15 06:01:19;;;;;;;8.35;3.85;;;;;;;;;;5037998;28;20156;-83
2023/06/15 06:03:46;;;;;;;6.88;3.83;;;;;;;;;;5037138;28;20094;-83
2023/06/15 06:06:12;;;;;;;6.35;3.55;;;;;;;;;;5024625;28;20041;-83
2023/06/15 06:08:38;;;;;;;6.13;3.65;;;;;;;;;;5028752;28;20033;-85
2023/06/15 06:11:07;;;;;;;5.97;3.78;;;;;;;;;;5030207;28;20033;-84
2023/06/15 06:13:42;;;;;;;6.72;4.32;;;;;;;;;;5018815;28;20087;-85
2023/06/15 06:16:07;;;;;;;6.43;4.03;;;;;;;;;;5017497;28;20045;-84
2023/06/15 06:18:33;;;;;;;7.38;4.00;;;;;;;;;;5037037;28;20037;-84
2023/06/15 06:20:58;;;;;;;4.93;3.85;;;;;;;;;;5022278;28;20037;-83
2023/06/15 06:23:25;;;;;;;8.02;4.10;;;;;;;;;;5025008;28;20127;-83
2023/06/15 06:25:50;;;;;;;9.18;4.30;;;;;;;;;;5027628;28;20111;-85
2023/06/15 06:28:17;;;;;;;8.35;4.00;;;;;;;;;;5031306;28;20072;-83
2023/06/15 06:30:43;;;;;;;5.45;4.15;;;;;;;;;;5033509;28;20428;-84
2023/06/15 06:33:08;;;;;;;8.38;3.88;;;;;;;;;;5048149;28;20048;-85
2023/06/15 06:35:34;;;;;;;12.48;4.50;;;;;;;;;;5031050;28;20131;-84
2023/06/15 06:37:59;;;;;;;7.93;3.97;;;;;;;;;;5028941;28;20136;-85
2023/06/15 06:40:28;;;;;;;6.20;4.13;;;;;;;;;;5043567;28;20029;-85
2023/06/15 06:42:54;;;;;;;6.10;4.32;;;;;;;;;;5023474;28;20040;-86
2023/06/15 06:45:19;;;;;;;7.50;3.90;;;;;;;;;;5023390;28;20033;-85
2023/06/15 06:47:45;;;;;;;5.57;4.28;;;;;;;;;;5051202;28;20037;-85
2023/06/15 06:50:10;;;;;;;6.93;4.40;;;;;;;;;;5034240;28;20384;-83
2023/06/15 06:52:36;;;;;;;5.93;4.53;;;;;;;;;;5039169;28;20049;-84
2023/06/15 06:55:01;;;;;;;6.38;4.22;;;;;;;;;;5036565;28;20040;-84
2023/06/15 06:57:27;;;;;;;8.27;4.25;;;;;;;;;;5043816;28;20034;-85
2023/06/15 06:59:55;;;;;;;7.50;4.30;;;;;;;;;;5045671;28;20083;-86
2023/06/15 07:02:21;;;;;;;7.38;4.28;;;;;;;;;;5044354;28;20025;-85
2023/06/15 07:04:46;;;;;;;8.05;4.90;;;;;;;;;;5018203;28;20042;-84
2023/06/15 07:07:12;;;;;;;7.13;4.65;;;;;;;;;;5017161;28;20032;-84
2023/06/15 07:09:38;;;;;;;5.13;4.15;;;;;;;;;;5039197;28;20546;-84
2023/06/15 07:12:04;;;;;;;8.75;4.40;;;;;;;;;;5041651;28;20039;-83
2023/06/15 07:14:30;;;;;;;5.72;4.30;;;;;;;;;;5024607;28;20123;-84
2023/06/15 07:16:55;;;;;;;7.32;4.55;;;;;;;;;;5046280;28;20082;-82
2023/06/15 07:19:21;;;;;;;7.82;4.97;;;;;;;;;;5016513;28;20696;-83
2023/06/15 07:21:46;;;;;;;10.65;4.72;;;;;;;;;;5032325;28;20422;-83
2023/06/15 07:24:12;;;;;;;7.35;5.07;;;;;;;;;;5017038;28;20041;-83
2023/06/15 07:26:37;;;;;;;8.98;5.00;;;;;;;;;;5038856;28;20037;-82
2023/06/15 07:29:03;;;;;;;8.40;4.97;;;;;;;;;;5040928;28;20041;-84
2023/06/15 07:31:28;;;;;;;11.20;5.40;;;;;;;;;;5042258;28;20041;-84
2023/06/15 07:33:54;;;;;;;7.68;5.50;;;;;;;;;;5047078;28;20071;-83
2023/06/15 07:36:20;;;;;;;9.85;5.03;;;;;;;;;;5032410;28;20480;-83
2023/06/15 07:38:45;;;;;;;6.25;4.63;;;;;;;;;;5037622;28;20030;-84
2023/06/15 07:41:11;;;;;;;8.82;4.60;;;;;;;;;;5035818;28;20029;-83
2023/06/15 07:43:36;;;;;;;8.45;4.97;;;;;;;;;;5020861;28;20049;-85
2023/06/15 07:46:02;;;;;;;5.97;4.18;;;;;;;;;;5042114;28;20032;-84
2023/06/15 07:48:27;;;;;;;6.95;4.60;;;;;;;;;;5043570;28;20068;-85
2023/06/15 07:50:53;;;;;;;8.10;4.93;;;;;;;;;;5029725;28;20044;-83
2023/06/15 07:53:18;;;;;;;9.10;4.53;;;;;;;;;;5031920;28;20090;-84
2023/06/15 07:55:44;;;;;;;7.40;4.95;;;;;;;;;;5035660;28;20376;-85
2023/06/15 07:58:10;;;;;;;6.88;5.25;;;;;;;;;;5036959;28;20063;-84
2023/06/15 08:00:35;;;;;;;9.43;5.57;;;;;;;;;;5038787;28;20040;-85
2023/06/15 08:03:01;;;;;;;10.88;4.90;;;;;;;;;;5042746;28;20037;-83
2023/06/15 08:05:26;;;;;;;8.63;5.05;;;;;;;;;;5045607;28;20041;-84
2023/06/15 08:07:52;;;;;;;6.35;4.50;;;;;;;;;;5048712;28;20045;-83
2023/06/15 08:10:18;;;;;;;8.98;4.60;;;;;;;;;;5042485;28;20036;-84
2023/06/15 08:12:43;;;;;;;7.70;4.70;;;;;;;;;;5036647;28;20155;-83
2023/06/15 08:15:09;;;;;;;6.50;4.75;;;;;;;;;;5023121;28;20032;-83
2023/06/15 08:17:35;;;;;;;11.02;5.40;;;;;;;;;;5025606;28;20063;-83
2023/06/15 08:20:09;;;;;;;9.02;4.82;;;;;;;;;;5043195;28;20589;-83
2023/06/15 08:22:35;;;;;;;7.22;4.82;;;;;;;;;;5034935;28;20524;-82
2023/06/15 08:25:00;;;;;;;8.85;4.90;;;;;;;;;;5033948;28;20050;-83
2023/06/15 08:27:26;;;;;;;9.82;4.75;;;;;;;;;;5021288;28;20434;-84
2023/06/15 08:29:51;;;;;;;11.93;5.00;;;;;;;;;;5017637;28;20470;-84
2023/06/15 08:32:17;;;;;;;6.05;5.10;;;;;;;;;;5031394;28;20033;-83
2023/06/15 08:34:44;;;;;;;7.75;5.13;;;;;;;;;;5015962;28;20037;-83
2023/06/15 08:37:11;;;;;;;7.93;4.75;;;;;;;;;;5036517;28;20069;-83
2023/06/15 08:39:38;;;;;;;6.18;4.93;;;;;;;;;;5040802;28;20061;-82
2023/06/15 08:42:05;;;;;;;13.80;5.35;;;;;;;;;;5044006;28;20049;-83
2023/06/15 08:44:33;;;;;;;8.82;4.93;;;;;;;;;;5043131;28;20048;-83
2023/06/15 08:47:03;;;;;;;9.57;5.07;;;;;;;;;;5039649;28;20100;-83
2023/06/15 08:49:32;;;;;;;7.40;5.10;;;;;;;;;;5037557;28;20030;-83
2023/06/15 08:51:59;;;;;;;7.88;4.35;;;;;;;;;;5036981;28;20032;-83
2023/06/15 08:54:31;;;;;;;8.10;4.55;;;;;;;;;;5038944;28;20061;-83
2023/06/15 08:56:56;;;;;;;10.00;4.68;;;;;;;;;;5029186;28;20037;-83
2023/06/15 08:59:22;;;;;;;9.00;4.50;;;;;;;;;;5027709;28;20085;-83
2023/06/15 09:01:48;;;;;;;8.35;4.63;;;;;;;;;;5030638;28;20037;-83
2023/06/15 09:04:15;;;;;;;8.80;4.65;;;;;;;;;;5043174;28;20042;-83
2023/06/15 09:06:41;;;;;;;9.50;5.00;;;;;;;;;;5035802;28;20044;-83
2023/06/15 09:09:09;;;;;;;6.13;4.20;;;;;;;;;;5032886;28;20132;-83
2023/06/15 09:11:46;;;;;;;6.82;4.30;;;;;;;;;;5031215;28;20029;-83
2023/06/15 09:14:12;;;;;;;5.95;4.20;;;;;;;;;;5041328;28;20063;-82
2023/06/15 09:16:38;;;;;;;5.90;4.78;;;;;;;;;;5034941;28;20070;-83
2023/06/15 09:19:16;;;;;;;7.47;4.40;;;;;;;;;;5029341;28;20034;-83
2023/06/15 09:21:48;;;;;;;8.45;4.18;;;;;;;;;;5049271;28;20033;-83
2023/06/15 09:24:16;;;;;;;6.07;4.25;;;;;;;;;;5042411;28;20047;-82
2023/06/15 09:26:44;;;;;;;6.47;4.10;;;;;;;;;;5044184;28;20041;-83
2023/06/15 09:29:14;;;;;;;10.07;3.78;;;;;;;;;;5035180;28;20037;-85
2023/06/15 09:31:43;;;;;;;5.03;3.88;;;;;;;;;;5031306;28;20040;-85
2023/06/15 09:34:10;;;;;;;5.70;3.65;;;;;;;;;;5017365;28;20072;-85
2023/06/15 09:36:39;;;;;;;8.55;4.47;;;;;;;;;;5021745;28;20033;-85
2023/06/15 09:39:06;;;;;;;6.43;4.45;;;;;;;;;;5025209;28;20033;-85
2023/06/15 09:41:34;;;;;;;5.28;3.88;;;;;;;;;;5032424;28;20030;-85
2023/06/15 09:44:03;;;;;;;6.85;3.63;;;;;;;;;;5020537;28;20778;-85
2023/06/15 09:46:29;;;;;;;6.13;3.60;;;;;;;;;;5032878;28;20183;-85
2023/06/15 09:48:55;;;;;;;4.30;2.92;;;;;;;;;;5032876;28;20465;-85
2023/06/15 09:51:20;;;;;;;7.68;3.50;;;;;;;;;;5032043;28;20055;-85
2023/06/15 09:53:51;;;;;;;7.07;3.50;;;;;;;;;;5030861;28;20068;-85
2023/06/15 09:56:17;;;;;;;6.35;3.30;;;;;;;;;;5024094;28;20096;-85
2023/06/15 09:58:42;;;;;;;4.90;3.40;;;;;;;;;;5027151;28;20672;-85
2023/06/15 10:01:10;;;;;;;8.55;3.55;;;;;;;;;;5032486;28;20065;-86
2023/06/15 10:03:39;;;;;;;5.22;3.20;;;;;;;;;;5035199;28;20682;-86
2023/06/15 10:06:11;;;;;;;4.32;3.30;;;;;;;;;;5025661;28;20042;-84
2023/06/15 10:08:41;;;;;;;4.95;3.40;;;;;;;;;;5024463;28;20044;-82
2023/06/15 10:11:09;;;;;;;6.57;3.83;;;;;;;;;;5028569;28;20115;-82
2023/06/15 10:13:48;;;;;;;4.63;3.20;;;;;;;;;;5031969;28;20038;-82
2023/06/15 10:16:15;;;;;;;6.13;3.30;;;;;;;;;;5036139;28;20049;-82
2023/06/15 10:18:44;;;;;;;5.93;3.17;;;;;;;;;;5032615;28;20080;-82
2023/06/15 10:21:15;;;;;;;5.47;3.25;;;;;;;;;;5033683;28;20503;-81
2023/06/15 10:23:42;;;;;;;5.85;3.53;;;;;;;;;;5030990;28;20022;-82
2023/06/15 10:26:09;;;;;;;6.72;3.15;;;;;;;;;;5027248;28;20056;-83
2023/06/15 10:28:43;;;;;;;6.88;3.13;;;;;;;;;;5020332;28;20104;-83
2023/06/15 10:31:19;;;;;;;9.43;3.50;;;;;;;;;;5024502;28;20033;-83
2023/06/15 10:34:16;;;;;;;8.15;3.30;;;;;;;;;;5032106;28;20053;-83
2023/06/15 10:37:11;;;;;;;5.70;3.38;;;;;;;;;;5027832;28;20056;-83
2023/06/15 10:39:44;;;;;;;5.03;3.22;;;;;;;;;;5013672;28;20050;-82
2023/06/15 10:42:13;;;;;;;5.40;3.40;;;;;;;;;;5019386;28;20042;-83
2023/06/15 10:44:39;;;;;;;3.65;3.10;;;;;;;;;;5020824;28;20864;-83
2023/06/15 10:47:09;;;;;;;6.45;3.47;;;;;;;;;;5021658;28;20040;-83
2023/06/15 10:49:35;;;;;;;6.18;3.53;;;;;;;;;;5015024;28;20041;-83
2023/06/15 10:52:04;;;;;;;5.30;3.00;;;;;;;;;;5032513;28;20044;-83
2023/06/15 10:54:29;;;;;;;7.57;3.50;;;;;;;;;;5031705;28;20040;-83
2023/06/15 10:56:57;;;;;;;7.28;3.78;;;;;;;;;;5031335;28;20044;-82
2023/06/15 10:59:47;;;;;;;7.38;3.35;;;;;;;;;;5026469;28;20655;-83
2023/06/15 11:02:28;;;;;;;5.70;3.63;;;;;;;;;;5023458;28;20030;-83
2023/06/15 11:05:09;;;;;;;5.47;3.10;;;;;;;;;;5030396;28;20072;-83
2023/06/15 11:07:37;;;;;;;5.38;2.90;;;;;;;;;;5029328;28;20498;-83
2023/06/15 11:10:10;;;;;;;7.57;3.20;;;;;;;;;;5013274;28;20052;-83
2023/06/15 11:12:43;;;;;;;6.85;3.30;;;;;;;;;;5015457;28;20045;-83
2023/06/15 11:15:09;;;;;;;;;;;;;;;;;;5017735;28;20065;-83
2023/06/15 11:17:55;;;;;;;7.25;3.05;;;;;;;;;;5021337;28;19970;-83
2023/06/15 11:20:39;;;;;;;7.75;3.20;;;;;;;;;;5021286;28;20125;-82
2023/06/15 11:23:13;;;;;;;5.53;3.08;;;;;;;;;;5017924;28;20519;-83
2023/06/15 11:25:42;;;;;;;5.15;3.25;;;;;;;;;;5013645;28;20034;-83
2023/06/15 11:28:09;;;;;;;5.03;3.08;;;;;;;;;;5011091;28;20045;-83
2023/06/15 11:30:37;;;;;;;5.35;3.05;;;;;;;;;;5029422;28;20041;-83
2023/06/15 11:33:03;;;;;;;4.35;2.95;;;;;;;;;;5031043;28;20030;-83
2023/06/15 11:35:30;;;;;;;6.47;3.00;;;;;;;;;;5013984;28;20404;-83
2023/06/15 11:37:57;;;;;;;5.82;3.10;;;;;;;;;;5020700;28;20087;-83
2023/06/15 11:40:23;;;;;;;6.65;3.20;;;;;;;;;;5023749;28;20084;-83
2023/06/15 11:42:49;;;;;;;5.22;3.30;;;;;;;;;;5031114;28;20041;-83
2023/06/15 11:45:19;;;;;;;4.00;3.17;;;;;;;;;;5014592;28;20116;-83
2023/06/15 11:47:45;;;;;;;4.90;2.83;;;;;;;;;;5013706;28;20037;-83
2023/06/15 11:50:11;;;;;;;4.65;3.00;;;;;;;;;;5018627;28;20632;-83
2023/06/15 11:52:44;;;;;;;4.70;3.33;;;;;;;;;;5023690;28;20060;-83
2023/06/15 11:55:10;;;;;;;6.60;2.95;;;;;;;;;;5018752;28;20045;-82
2023/06/15 11:57:36;;;;;;;3.75;3.00;;;;;;;;;;5016048;28;20047;-83
2023/06/15 12:00:07;;;;;;;7.45;3.10;;;;;;;;;;5013684;28;20045;-83
2023/06/15 12:02:39;;;;;;;3.80;2.70;;;;;;;;;;5015938;28;20044;-83
2023/06/15 12:05:05;;;;;;;5.80;3.03;;;;;;;;;;5019138;28;20030;-83
2023/06/15 12:07:32;;;;;;;3.97;2.90;;;;;;;;;;5029757;28;20138;-83
2023/06/15 12:09:59;;;;;;;4.65;2.63;;;;;;;;;;5023935;28;20128;-83
2023/06/15 12:12:32;;;;;;;4.60;2.85;;;;;;;;;;5027333;28;20108;-83
2023/06/15 12:15:02;;;;;;;3.63;2.80;;;;;;;;;;5030650;28;20041;-83
2023/06/15 12:17:32;;;;;;;4.55;2.80;;;;;;;;;;5028446;28;20045;-83
2023/06/15 12:20:09;;;;;;;6.05;3.00;;;;;;;;;;5016769;28;20072;-83
2023/06/15 12:22:45;;;;;;;3.38;2.83;;;;;;;;;;5029360;28;20053;-83
2023/06/15 12:25:11;;;;;;;5.25;2.70;;;;;;;;;;5022143;28;20141;-82
2023/06/15 12:27:41;;;;;;;4.07;2.47;;;;;;;;;;5025317;28;20069;-83
2023/06/15 12:30:18;;;;;;;4.40;2.60;;;;;;;;;;5031261;28;20057;-83
2023/06/15 12:32:44;;;;;;;7.38;2.53;;;;;;;;;;5017747;28;20107;-83
2023/06/15 12:35:38;;;;;;;5.13;2.40;;;;;;;;;;5031580;28;20110;-83
2023/06/15 12:38:07;;;;;;;4.93;2.40;;;;;;;;;;5021111;28;20045;-83
2023/06/15 12:40:39;;;;;;;6.13;2.50;;;;;;;;;;5024640;28;20055;-83
2023/06/15 12:43:04;;;;;;;3.63;2.47;;;;;;;;;;5023543;28;20041;-84
2023/06/15 12:45:30;;;;;;;3.45;2.40;;;;;;;;;;5021137;28;20109;-84
2023/06/15 12:47:57;;;;;;;5.22;3.17;;;;;;;;;;5029382;28;20539;-83
2023/06/15 12:50:23;;;;;;;4.43;2.40;;;;;;;;;;5023635;28;20084;-83
2023/06/15 12:52:49;;;;;;;4.90;2.40;;;;;;;;;;5019788;28;20037;-83
2023/06/15 12:55:17;;;;;;;3.85;2.38;;;;;;;;;;5022634;28;20048;-83
2023/06/15 12:57:42;;;;;;;4.60;2.45;;;;;;;;;;5026625;28;20046;-84
2023/06/15 13:00:08;;;;;;;4.55;2.58;;;;;;;;;;5034052;28;20087;-83
2023/06/15 13:02:33;;;;;;;5.18;2.30;;;;;;;;;;5018777;28;20038;-83
2023/06/15 13:05:03;;;;;;;4.30;2.50;;;;;;;;;;5017500;28;20446;-83
2023/06/15 13:07:31;;;;;;;3.38;2.42;;;;;;;;;;5018380;28;20048;-83
2023/06/15 13:10:00;;;;;;;3.05;2.30;;;;;;;;;;5030649;28;20376;-83
2023/06/15 13:12:26;;;;;;;6.35;2.50;;;;;;;;;;5027141;28;20476;-84
2023/06/15 13:14:52;;;;;;;4.97;2.70;;;;;;;;;;5032761;28;20065;-84
2023/06/15 13:17:19;;;;;;;5.05;2.95;;;;;;;;;;5022452;28;20044;-83
2023/06/15 13:19:44;;;;;;;5.35;2.40;;;;;;;;;;5019488;28;20512;-84
2023/06/15 13:22:10;;;;;;;4.07;2.50;;;;;;;;;;5026901;28;20164;-83
2023/06/15 13:24:36;;;;;;;4.43;2.70;;;;;;;;;;5019200;28;20038;-83
2023/06/15 13:27:02;;;;;;;4.70;2.80;;;;;;;;;;5022641;28;20032;-83
2023/06/15 13:29:28;;;;;;;3.50;2.30;;;;;;;;;;5023999;28;20411;-82
2023/06/15 13:31:54;;;;;;;4.65;2.72;;;;;;;;;;5028185;28;20034;-84
2023/06/15 13:34:20;;;;;;;3.50;2.70;;;;;;;;;;5034030;28;20450;-83
2023/06/15 13:36:46;;;;;;;2.92;2.60;;;;;;;;;;5034933;28;20084;-83
2023/06/15 13:39:12;;;;;;;5.72;2.92;;;;;;;;;;5033241;28;20030;-83
2023/06/15 13:41:37;;;;;;;5.82;2.80;;;;;;;;;;5032479;28;20088;-83
2023/06/15 13:44:03;;;;;;;6.82;2.80;;;;;;;;;;5029372;28;20648;-83
2023/06/15 13:46:30;;;;;;;3.55;2.70;;;;;;;;;;5026656;28;20638;-83
2023/06/15 13:48:56;;;;;;;7.30;2.80;;;;;;;;;;5026057;28;20500;-83
2023/06/15 13:51:22;;;;;;;4.35;2.80;;;;;;;;;;5019167;28;20025;-83
2023/06/15 13:53:47;;;;;;;4.13;2.80;;;;;;;;;;5028674;28;20688;-83
2023/06/15 13:56:13;;;;;;;4.38;2.60;;;;;;;;;;5023225;28;20160;-83
2023/06/15 13:58:39;;;;;;;6.70;3.00;;;;;;;;;;5020469;28;20037;-83
2023/06/15 14:01:05;;;;;;;5.32;2.90;;;;;;;;;;5023459;28;20030;-83
2023/06/15 14:03:30;;;;;;;5.95;2.88;;;;;;;;;;5027093;28;20038;-83
2023/06/15 14:05:56;;;;;;;6.18;2.85;;;;;;;;;;5032175;28;20040;-83
2023/06/15 14:08:21;;;;;;;4.22;2.88;;;;;;;;;;5019300;28;20492;-84
2023/06/15 14:10:47;;;;;;;4.25;2.83;;;;;;;;;;5016339;28;20056;-83
2023/06/15 14:13:15;;;;;;;4.85;3.03;;;;;;;;;;5017177;28;20034;-83
2023/06/15 14:15:41;;;;;;;3.45;2.88;;;;;;;;;;5028443;28;20034;-83
2023/06/15 14:18:07;;;;;;;7.78;3.00;;;;;;;;;;5022594;28;20033;-83
2023/06/15 14:20:32;;;;;;;4.43;3.10;;;;;;;;;;5024568;28;20040;-83
2023/06/15 14:22:58;;;;;;;4.80;2.97;;;;;;;;;;5028512;28;20520;-83
2023/06/15 14:25:23;;;;;;;4.57;2.65;;;;;;;;;;5031067;28;20064;-83
2023/06/15 14:27:49;;;;;;;5.07;3.10;;;;;;;;;;5033564;28;20526;-83
2023/06/15 14:30:15;;;;;;;6.10;3.00;;;;;;;;;;5031812;28;20037;-83
2023/06/15 14:32:41;;;;;;;7.22;3.00;;;;;;;;;;5031560;28;20026;-83
2023/06/15 14:35:07;;;;;;;5.15;3.10;;;;;;;;;;5026045;28;20025;-83
2023/06/15 14:37:33;;;;;;;6.55;2.78;;;;;;;;;;5023584;28;20491;-83
2023/06/15 14:39:58;;;;;;;5.13;3.00;;;;;;;;;;5026875;28;20044;-84
2023/06/15 14:42:28;;;;;;;4.53;2.60;;;;;;;;;;5031236;28;20063;-82
2023/06/15 14:44:54;;;;;;;4.95;2.53;;;;;;;;;;5025031;28;20159;-82